createdAt,value
2018-08-07T00:00:18.055Z,1013.21
2018-08-07T00:01:18.091Z,1013.19
2018-08-07T00:02:18.153Z,1013.18
2018-08-07T00:03:18.145Z,1013.19
2018-08-07T00:04:18.170Z,1013.14
2018-08-07T00:05:18.213Z,1013.15
2018-08-07T00:06:18.227Z,1013.15
2018-08-07T00:07:18.263Z,1013.10
2018-08-07T00:08:18.294Z,1013.13
2018-08-07T00:09:18.322Z,1013.14
2018-08-07T00:10:18.352Z,1013.11
2018-08-07T00:11:18.390Z,1013.13
2018-08-07T00:12:18.421Z,1013.09
2018-08-07T00:13:18.450Z,1013.09
2018-08-07T00:14:18.482Z,1013.03
2018-08-07T00:15:18.507Z,1013.09
2018-08-07T00:16:18.533Z,1013.05
2018-08-07T00:17:18.560Z,1013.04
2018-08-07T00:18:18.601Z,1013.01
2018-08-07T00:19:18.624Z,1013.04
2018-08-07T00:20:18.649Z,1013.01
2018-08-07T00:21:18.680Z,1013.01
2018-08-07T00:22:18.710Z,1013.01
2018-08-07T00:23:18.744Z,1013.01
2018-08-07T00:24:18.772Z,1013.04
2018-08-07T00:25:18.807Z,1013.01
2018-08-07T00:26:18.831Z,1013.04
2018-08-07T00:27:18.869Z,1013.03
2018-08-07T00:28:18.888Z,1013.05
2018-08-07T00:29:18.925Z,1013.05
2018-08-07T00:30:18.950Z,1013.03
2018-08-07T00:31:18.976Z,1013.03
2018-08-07T00:32:19.012Z,1013.01
2018-08-07T00:33:19.054Z,1013.00
2018-08-07T00:34:19.064Z,1012.96
2018-08-07T00:35:19.102Z,1013.00
2018-08-07T00:36:19.128Z,1012.93
2018-08-07T00:37:19.162Z,1012.96
2018-08-07T00:38:19.840Z,1012.93
2018-08-07T00:39:19.229Z,1012.95
2018-08-07T00:40:19.837Z,1012.94
2018-08-07T00:41:19.279Z,1012.89
2018-08-07T00:42:19.310Z,1012.89
2018-08-07T00:43:19.340Z,1012.89
2018-08-07T00:44:19.364Z,1012.86
2018-08-07T00:45:19.400Z,1012.88
2018-08-07T00:46:19.424Z,1012.87
2018-08-07T00:47:19.457Z,1012.85
2018-08-07T00:48:19.487Z,1012.84
2018-08-07T00:49:19.522Z,1012.84
2018-08-07T00:50:19.549Z,1012.83
2018-08-07T00:51:19.586Z,1012.80
2018-08-07T00:52:19.605Z,1012.81
2018-08-07T00:53:19.639Z,1012.80
2018-08-07T00:54:19.667Z,1012.79
2018-08-07T00:55:19.696Z,1012.78
2018-08-07T00:56:19.726Z,1012.77
2018-08-07T00:57:19.758Z,1012.75
2018-08-07T00:58:19.781Z,1012.76
2018-08-07T00:59:19.813Z,1012.73
2018-08-07T01:00:19.846Z,1012.75
2018-08-07T01:01:19.870Z,1012.68
2018-08-07T01:02:19.907Z,1012.69
2018-08-07T01:03:19.953Z,1012.68
2018-08-07T01:04:19.976Z,1012.66
2018-08-07T01:05:19.998Z,1012.62
2018-08-07T01:06:20.031Z,1012.63
2018-08-07T01:07:20.060Z,1012.63
2018-08-07T01:08:20.090Z,1012.63
2018-08-07T01:09:20.109Z,1012.60
2018-08-07T01:10:20.154Z,1012.56
2018-08-07T01:11:20.179Z,1012.62
2018-08-07T01:12:20.198Z,1012.61
2018-08-07T01:13:20.237Z,1012.61
2018-08-07T01:14:20.269Z,1012.58
2018-08-07T01:15:20.301Z,1012.59
2018-08-07T01:16:20.318Z,1012.56
2018-08-07T01:17:20.355Z,1012.56
2018-08-07T01:18:20.382Z,1012.52
2018-08-07T01:19:20.417Z,1012.49
2018-08-07T01:20:20.454Z,1012.52
2018-08-07T01:21:20.471Z,1012.45
2018-08-07T01:22:20.508Z,1012.45
2018-08-07T01:23:20.535Z,1012.45
2018-08-07T01:24:20.565Z,1012.46
2018-08-07T01:25:20.590Z,1012.51
2018-08-07T01:26:20.634Z,1012.51
2018-08-07T01:27:20.647Z,1012.45
2018-08-07T01:28:20.678Z,1012.47
2018-08-07T01:29:20.715Z,1012.47
2018-08-07T01:30:20.737Z,1012.46
2018-08-07T01:31:20.772Z,1012.47
2018-08-07T01:32:20.794Z,1012.45
2018-08-07T01:33:20.827Z,1012.45
2018-08-07T01:34:20.863Z,1012.44
2018-08-07T01:35:20.897Z,1012.46
2018-08-07T01:36:20.918Z,1012.45
2018-08-07T01:37:20.947Z,1012.41
2018-08-07T01:38:20.977Z,1012.40
2018-08-07T01:39:21.006Z,1012.42
2018-08-07T01:40:21.037Z,1012.43
2018-08-07T01:41:21.064Z,1012.40
2018-08-07T01:42:21.097Z,1012.43
2018-08-07T01:43:21.126Z,1012.42
2018-08-07T01:44:21.177Z,1012.44
2018-08-07T01:45:21.179Z,1012.37
2018-08-07T01:46:21.213Z,1012.41
2018-08-07T01:47:21.250Z,1012.41
2018-08-07T01:48:21.271Z,1012.40
2018-08-07T01:49:21.307Z,1012.39
2018-08-07T01:50:21.338Z,1012.33
2018-08-07T01:51:21.370Z,1012.36
2018-08-07T01:52:21.393Z,1012.37
2018-08-07T01:53:21.450Z,1012.34
2018-08-07T01:54:21.479Z,1012.37
2018-08-07T01:55:21.480Z,1012.36
2018-08-07T01:56:21.515Z,1012.32
2018-08-07T01:57:21.541Z,1012.34
2018-08-07T01:58:21.575Z,1012.33
2018-08-07T01:59:21.602Z,1012.32
2018-08-07T02:00:21.696Z,1012.30
2018-08-07T02:01:21.655Z,1012.30
2018-08-07T02:02:21.708Z,1012.32
2018-08-07T02:03:21.720Z,1012.32
2018-08-07T02:04:21.750Z,1012.26
2018-08-07T02:05:21.778Z,1012.31
2018-08-07T02:06:21.811Z,1012.30
2018-08-07T02:07:21.841Z,1012.25
2018-08-07T02:08:21.874Z,1012.29
2018-08-07T02:09:21.913Z,1012.31
2018-08-07T02:10:21.926Z,1012.27
2018-08-07T02:11:21.964Z,1012.27
2018-08-07T02:12:21.988Z,1012.28
2018-08-07T02:13:22.022Z,1012.28
2018-08-07T02:14:22.058Z,1012.27
2018-08-07T02:15:22.088Z,1012.26
2018-08-07T02:16:22.120Z,1012.28
2018-08-07T02:17:22.134Z,1012.26
2018-08-07T02:18:22.163Z,1012.25
2018-08-07T02:19:22.189Z,1012.25
2018-08-07T02:20:22.222Z,1012.25
2018-08-07T02:21:22.251Z,1012.26
2018-08-07T02:22:22.293Z,1012.23
2018-08-07T02:23:22.311Z,1012.23
2018-08-07T02:24:22.340Z,1012.22
2018-08-07T02:25:22.374Z,1012.21
2018-08-07T02:26:22.411Z,1012.21
2018-08-07T02:27:22.443Z,1012.19
2018-08-07T02:28:22.470Z,1012.18
2018-08-07T02:29:22.513Z,1012.15
2018-08-07T02:30:22.521Z,1012.15
2018-08-07T02:31:22.557Z,1012.15
2018-08-07T02:32:22.577Z,1012.16
2018-08-07T02:33:22.610Z,1012.15
2018-08-07T02:34:22.639Z,1012.14
2018-08-07T02:35:22.667Z,1012.11
2018-08-07T02:36:22.699Z,1012.18
2018-08-07T02:37:22.737Z,1012.15
2018-08-07T02:38:22.773Z,1012.14
2018-08-07T02:39:22.789Z,1012.19
2018-08-07T02:40:22.813Z,1012.16
2018-08-07T02:41:22.841Z,1012.14
2018-08-07T02:42:22.875Z,1012.13
2018-08-07T02:43:22.904Z,1012.14
2018-08-07T02:44:22.955Z,1012.15
2018-08-07T02:45:22.967Z,1012.16
2018-08-07T02:46:23.003Z,1012.13
2018-08-07T02:47:23.025Z,1012.13
2018-08-07T02:48:23.066Z,1012.15
2018-08-07T02:49:23.119Z,1012.10
2018-08-07T02:50:23.109Z,1012.11
2018-08-07T02:51:23.163Z,1012.13
2018-08-07T02:52:23.165Z,1012.10
2018-08-07T02:53:23.201Z,1012.07
2018-08-07T02:54:23.234Z,1012.08
2018-08-07T02:55:23.259Z,1012.10
2018-08-07T02:56:23.294Z,1012.06
2018-08-07T02:57:23.316Z,1012.06
2018-08-07T02:58:23.417Z,1012.08
2018-08-07T02:59:23.403Z,1012.03
2018-08-07T03:00:23.413Z,1012.02
2018-08-07T03:01:23.452Z,1011.98
2018-08-07T03:02:23.469Z,1012.00
2018-08-07T03:03:23.514Z,1011.97
2018-08-07T03:04:23.523Z,1011.98
2018-08-07T03:05:23.592Z,1011.96
2018-08-07T03:06:23.581Z,1011.96
2018-08-07T03:07:23.616Z,1011.93
2018-08-07T03:08:23.640Z,1011.94
2018-08-07T03:09:23.783Z,1011.91
2018-08-07T03:10:23.704Z,1011.93
2018-08-07T03:11:23.783Z,1011.94
2018-08-07T03:12:23.758Z,1011.93
2018-08-07T03:13:23.800Z,1011.95
2018-08-07T03:14:23.823Z,1011.95
2018-08-07T03:15:23.848Z,1011.97
2018-08-07T03:16:23.872Z,1012.01
2018-08-07T03:17:23.904Z,1011.96
2018-08-07T03:18:23.934Z,1011.97
2018-08-07T03:19:23.964Z,1011.97
2018-08-07T03:20:24.010Z,1011.95
2018-08-07T03:21:24.020Z,1011.93
2018-08-07T03:22:24.050Z,1011.94
2018-08-07T03:23:24.080Z,1011.93
2018-08-07T03:24:24.116Z,1011.91
2018-08-07T03:25:24.144Z,1011.91
2018-08-07T03:26:24.172Z,1011.94
2018-08-07T03:27:24.198Z,1011.91
2018-08-07T03:28:24.243Z,1011.92
2018-08-07T03:29:24.258Z,1011.91
2018-08-07T03:30:24.284Z,1011.87
2018-08-07T03:31:24.318Z,1011.91
2018-08-07T03:32:24.368Z,1011.87
2018-08-07T03:33:24.375Z,1011.88
2018-08-07T03:34:24.411Z,1011.90
2018-08-07T03:35:24.432Z,1011.89
2018-08-07T03:36:24.483Z,1011.93
2018-08-07T03:37:24.494Z,1011.90
2018-08-07T03:38:24.549Z,1011.91
2018-08-07T03:39:24.566Z,1011.92
2018-08-07T03:40:24.584Z,1011.91
2018-08-07T03:41:24.632Z,1011.89
2018-08-07T03:42:24.640Z,1011.88
2018-08-07T03:43:24.668Z,1011.88
2018-08-07T03:44:24.697Z,1011.93
2018-08-07T03:45:24.725Z,1011.91
2018-08-07T03:46:24.763Z,1011.90
2018-08-07T03:47:24.792Z,1011.91
2018-08-07T03:48:24.813Z,1011.93
2018-08-07T03:49:24.889Z,1011.89
2018-08-07T03:50:24.886Z,1011.92
2018-08-07T03:51:24.902Z,1011.93
2018-08-07T03:52:24.931Z,1011.95
2018-08-07T03:53:24.959Z,1011.98
2018-08-07T03:54:25.004Z,1011.98
2018-08-07T03:55:25.028Z,1011.99
2018-08-07T03:56:25.052Z,1012.00
2018-08-07T03:57:25.085Z,1011.97
2018-08-07T03:58:25.110Z,1012.00
2018-08-07T03:59:25.142Z,1011.96
2018-08-07T04:00:25.173Z,1011.95
2018-08-07T04:01:25.194Z,1011.97
2018-08-07T04:02:25.260Z,1011.97
2018-08-07T04:03:25.256Z,1011.95
2018-08-07T04:04:25.291Z,1011.98
2018-08-07T04:05:25.313Z,1011.99
2018-08-07T04:06:25.338Z,1012.00
2018-08-07T04:07:25.375Z,1012.01
2018-08-07T04:08:25.414Z,1012.01
2018-08-07T04:09:25.590Z,1011.99
2018-08-07T04:10:25.467Z,1011.98
2018-08-07T04:11:25.575Z,1011.98
2018-08-07T04:12:25.520Z,1011.98
2018-08-07T04:13:25.560Z,1011.98
2018-08-07T04:14:25.586Z,1011.97
2018-08-07T04:15:25.605Z,1011.99
2018-08-07T04:16:25.633Z,1011.97
2018-08-07T04:17:25.678Z,1011.96
2018-08-07T04:18:25.706Z,1011.98
2018-08-07T04:19:25.744Z,1011.96
2018-08-07T04:20:25.764Z,1011.96
2018-08-07T04:21:25.787Z,1011.95
2018-08-07T04:22:25.824Z,1011.95
2018-08-07T04:23:25.843Z,1011.94
2018-08-07T04:24:25.878Z,1011.94
2018-08-07T04:25:25.904Z,1011.92
2018-08-07T04:26:25.931Z,1011.89
2018-08-07T04:27:25.970Z,1011.91
2018-08-07T04:28:25.993Z,1011.90
2018-08-07T04:29:26.040Z,1011.92
2018-08-07T04:30:26.052Z,1011.89
2018-08-07T04:31:26.093Z,1011.92
2018-08-07T04:32:26.115Z,1011.94
2018-08-07T04:33:26.134Z,1011.93
2018-08-07T04:34:26.181Z,1011.93
2018-08-07T04:35:26.195Z,1011.89
2018-08-07T04:36:26.232Z,1011.89
2018-08-07T04:37:26.258Z,1011.91
2018-08-07T04:38:26.286Z,1011.85
2018-08-07T04:39:26.310Z,1011.89
2018-08-07T04:40:26.353Z,1011.89
2018-08-07T04:41:26.368Z,1011.86
2018-08-07T04:42:26.399Z,1011.85
2018-08-07T04:43:26.442Z,1011.89
2018-08-07T04:44:26.468Z,1011.91
2018-08-07T04:45:26.488Z,1011.88
2018-08-07T04:46:26.524Z,1011.90
2018-08-07T04:47:26.570Z,1011.91
2018-08-07T04:48:26.579Z,1011.95
2018-08-07T04:49:26.617Z,1011.96
2018-08-07T04:50:26.636Z,1011.93
2018-08-07T04:51:26.667Z,1011.96
2018-08-07T04:52:26.704Z,1012.00
2018-08-07T04:53:26.727Z,1011.96
2018-08-07T04:54:26.757Z,1011.99
2018-08-07T04:55:26.792Z,1011.98
2018-08-07T04:56:26.812Z,1011.99
2018-08-07T04:57:26.848Z,1012.02
2018-08-07T04:58:26.875Z,1012.03
2018-08-07T04:59:26.899Z,1012.00
2018-08-07T05:00:26.932Z,1012.02
2018-08-07T05:01:26.963Z,1012.05
2018-08-07T05:02:26.986Z,1012.03
2018-08-07T05:03:27.030Z,1012.04
2018-08-07T05:04:27.057Z,1012.02
2018-08-07T05:05:27.078Z,1012.04
2018-08-07T05:06:27.112Z,1012.02
2018-08-07T05:07:27.136Z,1012.04
2018-08-07T05:08:27.166Z,1011.99
2018-08-07T05:09:27.206Z,1011.98
2018-08-07T05:10:27.302Z,1012.00
2018-08-07T05:11:27.323Z,1012.00
2018-08-07T05:12:27.289Z,1011.97
2018-08-07T05:13:27.314Z,1011.99
2018-08-07T05:14:27.345Z,1011.98
2018-08-07T05:15:27.394Z,1012.01
2018-08-07T05:16:27.415Z,1011.99
2018-08-07T05:17:27.439Z,1012.01
2018-08-07T05:18:27.471Z,1011.99
2018-08-07T05:19:27.507Z,1012.01
2018-08-07T05:20:27.527Z,1012.02
2018-08-07T05:21:27.547Z,1012.03
2018-08-07T05:22:27.589Z,1012.05
2018-08-07T05:23:27.624Z,1012.09
2018-08-07T05:24:27.637Z,1012.07
2018-08-07T05:25:27.667Z,1012.07
2018-08-07T05:26:27.700Z,1012.09
2018-08-07T05:27:27.724Z,1012.08
2018-08-07T05:28:27.764Z,1012.08
2018-08-07T05:29:27.785Z,1012.08
2018-08-07T05:30:27.814Z,1012.08
2018-08-07T05:31:28.434Z,1012.10
2018-08-07T05:32:27.873Z,1012.09
2018-08-07T05:33:27.912Z,1012.08
2018-08-07T05:34:27.941Z,1012.10
2018-08-07T05:35:27.961Z,1012.09
2018-08-07T05:36:28.001Z,1012.08
2018-08-07T05:37:28.021Z,1012.09
2018-08-07T05:38:28.049Z,1012.09
2018-08-07T05:39:28.083Z,1012.07
2018-08-07T05:40:28.112Z,1012.08
2018-08-07T05:41:28.150Z,1012.09
2018-08-07T05:42:28.261Z,1012.08
2018-08-07T05:43:28.203Z,1012.07
2018-08-07T05:44:28.226Z,1012.10
2018-08-07T05:45:28.274Z,1012.09
2018-08-07T05:46:28.309Z,1012.13
2018-08-07T05:47:28.318Z,1012.12
2018-08-07T05:48:28.347Z,1012.10
2018-08-07T05:49:28.388Z,1012.13
2018-08-07T05:50:28.551Z,1012.12
2018-08-07T05:51:28.460Z,1012.13
2018-08-07T05:52:28.459Z,1012.15
2018-08-07T05:53:28.497Z,1012.12
2018-08-07T05:54:28.526Z,1012.11
2018-08-07T05:55:28.554Z,1012.12
2018-08-07T05:56:28.594Z,1012.10
2018-08-07T05:57:28.630Z,1012.05
2018-08-07T05:58:28.637Z,1012.10
2018-08-07T05:59:28.669Z,1012.11
2018-08-07T06:00:28.696Z,1012.09
2018-08-07T06:01:28.767Z,1012.06
2018-08-07T06:02:28.757Z,1012.06
2018-08-07T06:03:28.792Z,1012.05
2018-08-07T06:04:28.823Z,1012.02
2018-08-07T06:05:28.855Z,1012.01
2018-08-07T06:06:28.876Z,1012.03
2018-08-07T06:07:28.902Z,1011.99
2018-08-07T06:08:28.943Z,1012.02
2018-08-07T06:09:28.989Z,1012.04
2018-08-07T06:10:28.989Z,1012.03
2018-08-07T06:11:29.036Z,1012.03
2018-08-07T06:12:29.065Z,1012.04
2018-08-07T06:13:29.165Z,1012.02
2018-08-07T06:14:29.114Z,1011.99
2018-08-07T06:15:29.162Z,1012.00
2018-08-07T06:16:29.168Z,1012.03
2018-08-07T06:17:29.209Z,1012.03
2018-08-07T06:18:29.231Z,1012.03
2018-08-07T06:19:29.257Z,1012.09
2018-08-07T06:20:29.293Z,1012.06
2018-08-07T06:21:29.334Z,1012.05
2018-08-07T06:22:29.364Z,1012.08
2018-08-07T06:23:29.379Z,1012.06
2018-08-07T06:24:29.424Z,1012.07
2018-08-07T06:25:29.446Z,1012.08
2018-08-07T06:26:29.483Z,1012.06
2018-08-07T06:27:29.506Z,1012.09
2018-08-07T06:28:29.560Z,1012.06
2018-08-07T06:29:29.560Z,1012.05
2018-08-07T06:30:29.582Z,1012.07
2018-08-07T06:31:30.519Z,1012.06
2018-08-07T06:32:29.640Z,1012.06
2018-08-07T06:33:29.690Z,1012.09
2018-08-07T06:34:29.714Z,1012.07
2018-08-07T06:35:29.738Z,1012.13
2018-08-07T06:36:29.773Z,1012.10
2018-08-07T06:37:29.788Z,1012.09
2018-08-07T06:38:29.824Z,1012.09
2018-08-07T06:39:29.848Z,1012.06
2018-08-07T06:40:29.873Z,1012.05
2018-08-07T06:41:29.912Z,1012.04
2018-08-07T06:42:29.970Z,1012.03
2018-08-07T06:43:29.966Z,1012.04
2018-08-07T06:44:29.999Z,1012.00
2018-08-07T06:45:30.021Z,1012.02
2018-08-07T06:46:30.053Z,1011.99
2018-08-07T06:47:30.115Z,1012.04
2018-08-07T06:48:30.117Z,1012.01
2018-08-07T06:49:30.144Z,1012.02
2018-08-07T06:50:30.188Z,1012.01
2018-08-07T06:51:30.214Z,1012.01
2018-08-07T06:52:30.233Z,1012.04
2018-08-07T06:53:30.279Z,1012.03
2018-08-07T06:54:30.291Z,1012.03
2018-08-07T06:55:30.319Z,1012.01
2018-08-07T06:56:30.364Z,1012.02
2018-08-07T06:57:30.386Z,1012.00
2018-08-07T06:58:30.425Z,1011.99
2018-08-07T06:59:30.445Z,1012.00
2018-08-07T07:00:30.474Z,1011.99
2018-08-07T07:01:30.508Z,1011.95
2018-08-07T07:02:30.531Z,1011.95
2018-08-07T07:03:30.561Z,1011.92
2018-08-07T07:04:30.606Z,1011.96
2018-08-07T07:05:30.618Z,1011.94
2018-08-07T07:06:30.643Z,1011.94
2018-08-07T07:07:30.684Z,1011.94
2018-08-07T07:08:30.711Z,1011.94
2018-08-07T07:09:30.805Z,1011.91
2018-08-07T07:10:30.766Z,1011.94
2018-08-07T07:11:30.803Z,1011.93
2018-08-07T07:12:30.831Z,1011.89
2018-08-07T07:13:30.872Z,1011.86
2018-08-07T07:14:30.890Z,1011.91
2018-08-07T07:15:30.926Z,1011.90
2018-08-07T07:16:30.953Z,1011.88
2018-08-07T07:17:31.003Z,1011.86
2018-08-07T07:18:31.009Z,1011.85
2018-08-07T07:19:31.050Z,1011.88
2018-08-07T07:20:31.106Z,1011.83
2018-08-07T07:21:31.091Z,1011.84
2018-08-07T07:22:31.131Z,1011.82
2018-08-07T07:23:31.186Z,1011.86
2018-08-07T07:24:31.190Z,1011.81
2018-08-07T07:25:31.217Z,1011.81
2018-08-07T07:26:31.280Z,1011.81
2018-08-07T07:27:31.274Z,1011.75
2018-08-07T07:28:31.398Z,1011.78
2018-08-07T07:29:31.335Z,1011.76
2018-08-07T07:30:31.365Z,1011.74
2018-08-07T07:31:31.975Z,1011.75
2018-08-07T07:32:31.419Z,1011.72
2018-08-07T07:33:31.452Z,1011.72
2018-08-07T07:34:31.499Z,1011.72
2018-08-07T07:35:31.524Z,1011.73
2018-08-07T07:36:31.544Z,1011.74
2018-08-07T07:37:31.578Z,1011.70
2018-08-07T07:38:31.601Z,1011.69
2018-08-07T07:39:31.630Z,1011.72
2018-08-07T07:40:31.690Z,1011.72
2018-08-07T07:41:31.693Z,1011.74
2018-08-07T07:42:31.726Z,1011.70
2018-08-07T07:43:31.757Z,1011.65
2018-08-07T07:44:31.796Z,1011.66
2018-08-07T07:45:31.815Z,1011.64
2018-08-07T07:46:31.849Z,1011.62
2018-08-07T07:47:31.872Z,1011.64
2018-08-07T07:48:31.904Z,1011.64
2018-08-07T07:49:31.947Z,1011.63
2018-08-07T07:50:32.209Z,1011.58
2018-08-07T07:51:32.098Z,1011.59
2018-08-07T07:53:32.096Z,1011.60
2018-08-07T07:54:32.078Z,1011.61
2018-08-07T07:55:32.117Z,1011.59
2018-08-07T07:56:32.136Z,1011.57
2018-08-07T07:57:32.168Z,1011.58
2018-08-07T07:58:32.208Z,1011.59
2018-08-07T07:59:32.377Z,1011.60
2018-08-07T08:00:32.596Z,1011.60
2018-08-07T08:01:32.393Z,1011.59
2018-08-07T08:02:32.384Z,1011.60
2018-08-07T08:04:32.392Z,1011.63
2018-08-07T08:05:32.467Z,1011.64
2018-08-07T08:07:32.492Z,1011.62
2018-08-07T08:08:32.521Z,1011.62
2018-08-07T08:09:32.548Z,1011.62
2018-08-07T08:10:32.564Z,1011.60
2018-08-07T08:12:32.631Z,1011.55
2018-08-07T08:13:53.671Z,1011.55
2018-08-07T08:14:32.687Z,1011.56
2018-08-07T08:15:32.727Z,1011.53
2018-08-07T08:16:32.783Z,1011.50
2018-08-07T08:17:32.777Z,1011.49
2018-08-07T08:18:32.806Z,1011.51
2018-08-07T08:19:32.832Z,1011.48
2018-08-07T08:20:32.862Z,1011.49
2018-08-07T08:21:32.897Z,1011.46
2018-08-07T08:22:32.924Z,1011.46
2018-08-07T08:23:32.950Z,1011.44
2018-08-07T08:24:32.996Z,1011.49
2018-08-07T08:25:33.011Z,1011.45
2018-08-07T08:26:33.051Z,1011.47
2018-08-07T08:27:33.079Z,1011.46
2018-08-07T08:28:33.128Z,1011.49
2018-08-07T08:29:33.271Z,1011.44
2018-08-07T08:30:33.170Z,1011.47
2018-08-07T08:31:33.220Z,1011.46
2018-08-07T08:32:33.243Z,1011.47
2018-08-07T08:33:33.272Z,1011.47
2018-08-07T08:34:33.284Z,1011.47
2018-08-07T08:35:33.371Z,1011.48
2018-08-07T08:36:33.547Z,1011.48
2018-08-07T08:37:33.385Z,1011.47
2018-08-07T08:38:33.405Z,1011.48
2018-08-07T08:39:33.436Z,1011.46
2018-08-07T08:40:33.473Z,1011.48
2018-08-07T08:41:33.503Z,1011.45
2018-08-07T08:42:33.552Z,1011.46
2018-08-07T08:43:33.557Z,1011.46
2018-08-07T08:44:33.597Z,1011.44
2018-08-07T08:45:33.617Z,1011.46
2018-08-07T08:46:33.648Z,1011.44
2018-08-07T08:47:33.682Z,1011.42
2018-08-07T08:48:33.797Z,1011.44
2018-08-07T08:49:33.740Z,1011.42
2018-08-07T08:50:33.775Z,1011.40
2018-08-07T08:51:33.868Z,1011.37
2018-08-07T08:52:33.833Z,1011.39
2018-08-07T08:53:36.504Z,1011.40
2018-08-07T08:54:33.921Z,1011.37
2018-08-07T08:55:33.925Z,1011.36
2018-08-07T08:56:33.967Z,1011.38
2018-08-07T08:57:33.989Z,1011.37
2018-08-07T08:58:34.047Z,1011.37
2018-08-07T08:59:34.047Z,1011.37
2018-08-07T09:00:34.099Z,1011.35
2018-08-07T09:01:34.111Z,1011.34
2018-08-07T09:02:34.144Z,1011.33
2018-08-07T09:03:34.192Z,1011.33
2018-08-07T09:04:34.206Z,1011.38
2018-08-07T09:05:34.229Z,1011.37
2018-08-07T09:06:34.289Z,1011.35
2018-08-07T09:07:34.309Z,1011.37
2018-08-07T09:08:34.335Z,1011.37
2018-08-07T09:09:34.363Z,1011.33
2018-08-07T09:10:34.496Z,1011.33
2018-08-07T09:11:34.475Z,1011.33
2018-08-07T09:12:34.489Z,1011.29
2018-08-07T09:13:34.482Z,1011.33
2018-08-07T09:14:34.568Z,1011.32
2018-08-07T09:15:34.583Z,1011.31
2018-08-07T09:16:34.568Z,1011.30
2018-08-07T09:17:34.617Z,1011.32
2018-08-07T09:18:34.628Z,1011.31
2018-08-07T09:19:34.714Z,1011.30
2018-08-07T09:20:34.698Z,1011.32
2018-08-07T09:21:34.718Z,1011.31
2018-08-07T09:22:34.747Z,1011.30
2018-08-07T09:23:34.779Z,1011.31
2018-08-07T09:24:34.827Z,1011.33
2018-08-07T09:25:34.950Z,1011.27
2018-08-07T09:26:34.874Z,1011.30
2018-08-07T09:27:34.901Z,1011.28
2018-08-07T09:28:34.938Z,1011.29
2018-08-07T09:29:34.974Z,1011.27
2018-08-07T09:30:34.996Z,1011.24
2018-08-07T09:31:35.034Z,1011.22
2018-08-07T09:32:35.117Z,1011.18
2018-08-07T09:33:35.115Z,1011.22
2018-08-07T09:34:35.117Z,1011.15
2018-08-07T09:35:35.158Z,1011.17
2018-08-07T09:36:35.179Z,1011.15
2018-08-07T09:37:35.253Z,1011.12
2018-08-07T09:38:35.248Z,1011.10
2018-08-07T09:40:35.361Z,1011.12
2018-08-07T09:41:35.336Z,1011.12
2018-08-07T09:42:35.376Z,1011.16
2018-08-07T09:43:35.395Z,1011.12
2018-08-07T09:44:35.606Z,1011.07
2018-08-07T09:45:35.461Z,1011.10
2018-08-07T09:46:35.539Z,1011.06
2018-08-07T09:47:35.519Z,1011.07
2018-08-07T09:48:35.552Z,1011.08
2018-08-07T09:49:36.530Z,1011.04
2018-08-07T09:50:35.615Z,1011.05
2018-08-07T09:51:35.647Z,1011.04
2018-08-07T09:52:35.680Z,1011.05
2018-08-07T09:53:35.711Z,1011.00
2018-08-07T09:54:35.752Z,1010.98
2018-08-07T09:55:35.774Z,1010.97
2018-08-07T09:57:35.838Z,1011.00
2018-08-07T09:58:35.882Z,1010.95
2018-08-07T09:59:35.900Z,1010.96
2018-08-07T10:00:35.936Z,1010.93
2018-08-07T10:01:35.973Z,1010.93
2018-08-07T10:02:35.985Z,1010.90
2018-08-07T10:03:36.025Z,1010.90
2018-08-07T10:04:36.048Z,1010.91
2018-08-07T10:05:36.204Z,1010.89
2018-08-07T10:06:36.111Z,1010.86
2018-08-07T10:07:36.154Z,1010.92
2018-08-07T10:08:36.183Z,1010.90
2018-08-07T10:09:36.236Z,1010.82
2018-08-07T10:10:36.236Z,1010.77
2018-08-07T10:11:36.295Z,1010.78
2018-08-07T10:12:36.326Z,1010.91
2018-08-07T10:13:36.329Z,1010.86
2018-08-07T10:14:36.360Z,1010.75
2018-08-07T10:15:36.411Z,1010.90
2018-08-07T10:16:36.425Z,1010.94
2018-08-07T10:17:36.457Z,1010.85
2018-08-07T10:18:36.533Z,1010.91
2018-08-07T10:19:36.546Z,1010.88
2018-08-07T10:20:36.556Z,1010.86
2018-08-07T10:21:36.589Z,1010.83
2018-08-07T10:22:36.618Z,1010.79
2018-08-07T10:23:36.670Z,1010.82
2018-08-07T10:24:36.692Z,1010.85
2018-08-07T10:25:36.706Z,1010.81
2018-08-07T10:26:36.736Z,1010.69
2018-08-07T10:27:36.812Z,1010.74
2018-08-07T10:28:36.808Z,1010.85
2018-08-07T10:29:36.839Z,1010.91
2018-08-07T10:30:36.884Z,1010.90
2018-08-07T10:31:36.910Z,1010.91
2018-08-07T10:32:36.929Z,1010.90
2018-08-07T10:33:36.964Z,1010.88
2018-08-07T10:34:36.995Z,1010.85
2018-08-07T10:35:37.034Z,1010.82
2018-08-07T10:36:37.081Z,1010.80
2018-08-07T10:37:37.094Z,1010.76
2018-08-07T10:38:37.136Z,1010.80
2018-08-07T10:39:37.151Z,1010.75
2018-08-07T10:40:37.270Z,1010.73
2018-08-07T10:41:37.215Z,1010.76
2018-08-07T10:42:37.250Z,1010.77
2018-08-07T10:43:37.326Z,1010.73
2018-08-07T10:44:37.323Z,1010.75
2018-08-07T10:45:37.346Z,1010.71
2018-08-07T10:46:37.386Z,1010.68
2018-08-07T10:47:37.570Z,1010.67
2018-08-07T10:48:37.445Z,1010.62
2018-08-07T10:49:37.503Z,1010.61
2018-08-07T10:50:37.510Z,1010.63
2018-08-07T10:51:37.544Z,1010.50
2018-08-07T10:52:37.581Z,1010.62
2018-08-07T10:53:37.613Z,1010.54
2018-08-07T10:54:37.651Z,1010.53
2018-08-07T10:55:37.685Z,1010.50
2018-08-07T10:56:37.792Z,1010.50
2018-08-07T10:57:37.761Z,1010.50
2018-08-07T10:58:37.787Z,1010.47
2018-08-07T10:59:37.817Z,1010.51
2018-08-07T11:00:37.848Z,1010.48
2018-08-07T11:01:37.880Z,1010.49
2018-08-07T11:02:37.922Z,1010.47
2018-08-07T11:03:37.954Z,1010.47
2018-08-07T11:04:37.983Z,1010.44
2018-08-07T11:05:38.040Z,1010.51
2018-08-07T11:06:38.053Z,1010.50
2018-08-07T11:07:38.109Z,1010.48
2018-08-07T11:08:38.117Z,1010.44
2018-08-07T11:09:38.152Z,1010.44
2018-08-07T11:10:38.205Z,1010.41
2018-08-07T11:11:38.224Z,1010.42
2018-08-07T11:12:38.281Z,1010.41
2018-08-07T11:13:38.340Z,1010.40
2018-08-07T11:14:38.327Z,1010.42
2018-08-07T11:15:38.361Z,1010.42
2018-08-07T11:16:38.401Z,1010.41
2018-08-07T11:17:38.454Z,1010.47
2018-08-07T11:18:38.468Z,1010.47
2018-08-07T11:19:38.508Z,1010.49
2018-08-07T11:20:38.545Z,1010.49
2018-08-07T11:21:38.590Z,1010.45
2018-08-07T11:22:38.619Z,1010.43
2018-08-07T11:23:38.651Z,1010.37
2018-08-07T11:24:38.705Z,1010.34
2018-08-07T11:25:38.723Z,1010.37
2018-08-07T11:26:38.767Z,1010.33
2018-08-07T11:27:38.809Z,1010.32
2018-08-07T11:28:38.835Z,1010.32
2018-08-07T11:29:38.887Z,1010.31
2018-08-07T11:30:38.922Z,1010.29
2018-08-07T11:31:38.957Z,1010.27
2018-08-07T11:32:39.011Z,1010.27
2018-08-07T11:33:39.034Z,1010.30
2018-08-07T11:34:39.073Z,1010.28
2018-08-07T11:35:39.115Z,1010.24
2018-08-07T11:36:39.161Z,1010.21
2018-08-07T11:37:39.201Z,1010.15
2018-08-07T11:38:39.243Z,1010.17
2018-08-07T11:39:39.268Z,1010.16
2018-08-07T11:40:39.313Z,1010.12
2018-08-07T11:41:39.363Z,1010.15
2018-08-07T11:42:39.393Z,1010.15
2018-08-07T11:43:39.440Z,1010.14
2018-08-07T11:44:39.469Z,1010.15
2018-08-07T11:45:39.514Z,1010.12
2018-08-07T11:46:39.544Z,1010.10
2018-08-07T11:47:39.581Z,1010.05
2018-08-07T11:48:39.619Z,1010.05
2018-08-07T11:49:39.654Z,1010.08
2018-08-07T11:50:39.732Z,1010.03
2018-08-07T11:51:39.734Z,1010.01
2018-08-07T11:52:39.757Z,1010.01
2018-08-07T11:53:39.792Z,1009.99
2018-08-07T11:54:39.830Z,1009.94
2018-08-07T11:55:39.871Z,1009.95
2018-08-07T11:56:39.899Z,1009.93
2018-08-07T11:57:39.932Z,1009.89
2018-08-07T11:58:39.984Z,1009.91
2018-08-07T11:59:40.104Z,1009.88
2018-08-07T12:00:40.031Z,1009.90
2018-08-07T12:01:40.085Z,1009.92
2018-08-07T12:02:40.118Z,1009.88
2018-08-07T12:03:40.160Z,1009.86
2018-08-07T12:04:40.176Z,1009.83
2018-08-07T12:05:40.210Z,1009.81
2018-08-07T12:06:40.239Z,1009.84
2018-08-07T12:07:40.270Z,1009.79
2018-08-07T12:08:40.320Z,1009.79
2018-08-07T12:09:40.339Z,1009.78
2018-08-07T12:10:40.374Z,1009.74
2018-08-07T12:11:40.406Z,1009.73